Sunday, May 29, 2016, 11:15 AM EDT

KSEG, Selinsgrove Penn Valley Airport

Location: Selinsgrove, PA, United States Lat: 40.817
Local Time: 11:15 AM EDT (15:15 GMT) Lon: -76.867
Time Zone: US/Eastern Elev: 449 ft

Show me the last for .
Show Decoded

2016-05-29 10:53 METAR KSEG 291453Z AUTO 14007KT 10SM CLR 28/18 A3012 RMK AO2 SLP195 T02780183
                 58006 =
2016-05-29 09:53 METAR KSEG 291353Z AUTO 15006KT 10SM CLR 27/19 A3013 RMK AO2 SLP199 T02670189 =
2016-05-29 08:53 METAR KSEG 291253Z AUTO 18006KT 10SM CLR 25/18 A3014 RMK AO2 SLP202 T02500183 =
2016-05-29 07:53 METAR KSEG 291153Z AUTO 16003KT 10SM CLR 23/18 A3014 RMK AO2 SLP201 T02330183
                 10233 20194 51006 =
2016-05-29 06:53 METAR KSEG 291053Z AUTO 00000KT 5SM HZ CLR 22/19 A3013 RMK AO2 SLP199 T02170189
                 =
2016-05-29 05:53 METAR KSEG 290953Z AUTO 00000KT 3SM BR CLR 19/18 A3013 RMK AO2 SLP198 T01940178
                 =
2016-05-29 04:53 METAR KSEG 290853Z AUTO 00000KT 7SM CLR 20/18 A3012 RMK AO2 SLP195 T02000183
                 56001 =
2016-05-29 03:53 METAR KSEG 290753Z AUTO 00000KT 7SM CLR 20/19 A3012 RMK AO2 SLP195 T02000189 =
2016-05-29 02:53 METAR KSEG 290653Z AUTO 22003KT 9SM CLR 22/19 A3011 RMK AO2 SLP192 T02220189 =
2016-05-29 01:53 METAR KSEG 290553Z AUTO 00000KT 10SM CLR 23/19 A3012 RMK AO2 SLP195 T02330194
                 10289 20217 51001 =
2016-05-29 00:53 METAR KSEG 290453Z AUTO 31003KT 9SM CLR 22/19 A3012 RMK AO2 SLP195 T02170194
                 403390178 =
2016-05-28 23:53 METAR KSEG 290353Z AUTO 00000KT 9SM CLR 23/20 A3012 RMK AO2 SLP196 T02280200 =
2016-05-28 22:53 METAR KSEG 290253Z AUTO 00000KT 10SM CLR 23/20 A3012 RMK AO2 SLP195 T02280200
                 53011 =
2016-05-28 21:53 METAR KSEG 290153Z AUTO 00000KT 9SM CLR 24/20 A3010 RMK AO2 SLP190 T02390200 =
2016-05-28 20:53 METAR KSEG 290053Z AUTO 00000KT 10SM CLR 26/21 A3009 RMK AO2 SLP186 T02560206 =
2016-05-28 19:53 METAR KSEG 282353Z AUTO 00000KT 10SM CLR 29/19 A3008 RMK AO2 SLP183 T02890194
                 10339 20289 53001 =
2016-05-28 18:53 METAR KSEG 282253Z AUTO 21005KT 10SM CLR 31/18 A3007 RMK AO2 SLP179 T03110178 =
2016-05-28 17:53 METAR KSEG 282153Z AUTO 00000KT 10SM CLR 32/19 A3006 RMK AO2 SLP176 T03170189 =
2016-05-28 16:53 METAR KSEG 282053Z AUTO 36004KT 10SM FEW120 29/19 A3008 RMK AO2 SLP182 T02940194
                 56009 =
2016-05-28 15:53 METAR KSEG 281953Z AUTO 31006KT 10SM FEW060 32/18 A3009 RMK AO2 SLP184 T03220178
                 =
2016-05-28 14:53 METAR KSEG 281853Z AUTO VRB05KT 10SM CLR 33/18 A3009 RMK AO2 SLP186 T03330183 =
2016-05-28 13:53 METAR KSEG 281753Z AUTO VRB04KT 10SM CLR 32/18 A3011 RMK AO2 SLP190 T03220183
                 10322 20217 58012 =
2016-05-28 12:53 METAR KSEG 281653Z AUTO 00000KT 10SM CLR 31/19 A3012 RMK AO2 SLP196 T03110189 =
2016-05-28 11:53 METAR KSEG 281553Z AUTO VRB04KT 10SM CLR 29/19 A3014 RMK AO2 SLP201 T02940194 =

Support USWX by starting your Amazon purchase here.